Time;durP1;ratioP1;P1;durP2;ratioP2;P2;SDS_P1;SDS_P2;PMS_P1;PMS_P2;Temp;Humidity;BMP_temperature;BMP_pressure;BME280_temperature;BME280_humidity;BME280_pressure;Samples;Min_cycle;Max_cycle;Signal;HPM_P1;HPM_P2
2022/04/29 00:01:30;;;;;;;8.07;3.70;;;8.70;99.90;;;;;;5016063;28;20627;-84
2022/04/29 00:03:56;;;;;;;10.00;3.70;;;8.60;99.90;;;;;;5016690;28;20185;-84
2022/04/29 00:06:22;;;;;;;8.97;3.83;;;8.60;99.90;;;;;;5016767;28;20273;-85
2022/04/29 00:08:47;;;;;;;8.73;3.87;;;8.60;99.90;;;;;;5015988;28;20647;-83
2022/04/29 00:11:14;;;;;;;9.63;3.70;;;8.50;99.90;;;;;;5016402;28;20179;-84
2022/04/29 00:13:39;;;;;;;8.83;3.53;;;8.60;99.90;;;;;;5015807;28;20175;-83
2022/04/29 00:16:05;;;;;;;7.90;3.30;;;8.50;99.90;;;;;;5015730;28;20202;-83
2022/04/29 00:18:32;;;;;;;11.03;3.70;;;8.40;99.90;;;;;;5015061;28;20186;-83
2022/04/29 00:20:58;;;;;;;12.43;4.03;;;8.50;99.90;;;;;;5015066;28;20195;-83
2022/04/29 00:23:23;;;;;;;9.63;3.37;;;8.40;99.90;;;;;;5014579;28;20185;-83
2022/04/29 00:25:49;;;;;;;10.97;3.73;;;8.40;99.90;;;;;;5014510;28;20633;-83
2022/04/29 00:28:15;;;;;;;7.67;3.33;;;8.40;99.90;;;;;;5015325;28;20227;-84
2022/04/29 00:30:41;;;;;;;10.90;4.30;;;8.20;99.90;;;;;;5015021;28;20182;-84
2022/04/29 00:33:07;;;;;;;14.57;3.40;;;8.20;99.90;;;;;;5014728;28;20181;-83
2022/04/29 00:35:32;;;;;;;11.77;3.73;;;8.20;99.90;;;;;;5014398;28;20653;-83
2022/04/29 00:37:58;;;;;;;11.47;3.93;;;8.10;99.90;;;;;;5014389;28;20228;-85
2022/04/29 00:40:28;;;;;;;17.73;4.40;;;8.00;99.90;;;;;;5014260;28;20214;-83
2022/04/29 00:42:53;;;;;;;16.77;4.37;;;8.10;99.90;;;;;;5013524;28;20189;-83
2022/04/29 00:45:20;;;;;;;7.73;4.27;;;8.20;99.90;;;;;;5016066;28;20345;-84
2022/04/29 00:47:47;;;;;;;12.23;4.70;;;8.10;99.90;;;;;;5015340;28;20204;-83
2022/04/29 00:50:16;;;;;;;13.93;4.53;;;8.00;99.90;;;;;;5015664;28;20631;-84
2022/04/29 00:52:44;;;;;;;14.77;4.87;;;8.00;99.90;;;;;;5015750;28;20178;-83
2022/04/29 00:55:12;;;;;;;10.53;4.70;;;8.00;99.90;;;;;;5016053;28;20187;-82
2022/04/29 00:57:57;;;;;;;14.23;4.60;;;7.90;99.90;;;;;;5016053;28;20210;-83
2022/04/29 01:00:23;;;;;;;17.73;4.73;;;7.80;99.90;;;;;;5005428;28;20205;-83
2022/04/29 01:02:52;;;;;;;12.90;5.17;;;7.80;99.90;;;;;;5015492;28;20234;-83
2022/04/29 01:05:22;;;;;;;12.80;4.67;;;7.80;99.90;;;;;;5015616;28;20209;-82
2022/04/29 01:07:49;;;;;;;9.90;4.93;;;7.80;99.90;;;;;;5015413;28;20216;-83
2022/04/29 01:10:20;;;;;;;25.77;5.20;;;7.80;99.90;;;;;;5015719;28;20185;-82
2022/04/29 01:12:56;;;;;;;17.80;5.57;;;7.80;99.90;;;;;;5015658;28;20173;-84
2022/04/29 01:15:22;;;;;;;15.20;5.93;;;7.70;99.90;;;;;;5015842;28;20183;-82
2022/04/29 01:17:54;;;;;;;16.80;6.63;;;7.60;99.90;;;;;;5015345;28;20211;-84
2022/04/29 01:20:24;;;;;;;14.77;5.53;;;7.70;99.90;;;;;;5015779;28;20717;-83
2022/04/29 01:22:50;;;;;;;14.43;5.27;;;7.80;99.90;;;;;;5017079;28;20177;-84
2022/04/29 01:25:16;;;;;;;13.13;5.23;;;7.70;99.90;;;;;;5017112;28;20234;-84
2022/04/29 01:27:41;;;;;;;21.83;6.13;;;7.60;99.90;;;;;;5017264;28;20668;-84
2022/04/29 01:30:13;;;;;;;19.93;6.13;;;7.60;99.90;;;;;;5016389;28;20182;-84
2022/04/29 01:32:40;;;;;;;14.40;5.70;;;7.60;99.90;;;;;;5015685;28;20204;-83
2022/04/29 01:35:08;;;;;;;23.00;6.67;;;7.70;99.90;;;;;;5015822;28;20253;-83
2022/04/29 01:37:34;;;;;;;14.77;6.07;;;7.50;99.90;;;;;;5014906;28;20630;-85
2022/04/29 01:39:59;;;;;;;14.23;6.27;;;7.50;99.90;;;;;;5015485;28;20209;-84
2022/04/29 01:42:25;;;;;;;15.73;6.00;;;7.50;99.90;;;;;;5015460;28;20271;-84
2022/04/29 01:44:51;;;;;;;17.30;6.80;;;7.50;99.90;;;;;;5012416;28;20230;-84
2022/04/29 01:47:17;;;;;;;20.93;6.50;;;7.50;99.90;;;;;;5012393;28;20204;-83
2022/04/29 01:49:43;;;;;;;19.40;6.77;;;7.50;99.90;;;;;;5012526;28;20632;-83
2022/04/29 01:52:08;;;;;;;17.37;7.07;;;7.40;99.90;;;;;;5013444;28;20159;-83
2022/04/29 01:54:35;;;;;;;19.13;7.40;;;7.40;99.90;;;;;;5012206;28;20178;-83
2022/04/29 01:57:01;;;;;;;18.67;7.53;;;7.40;99.90;;;;;;5011598;28;20762;-84
2022/04/29 01:59:30;;;;;;;18.37;6.90;;;7.40;99.90;;;;;;5011621;28;20227;-84
2022/04/29 02:01:56;;;;;;;18.03;6.83;;;7.40;99.90;;;;;;5011558;28;20227;-84
2022/04/29 02:04:21;;;;;;;18.80;7.87;;;7.30;99.90;;;;;;5011204;28;20184;-84
2022/04/29 02:06:47;;;;;;;19.17;7.77;;;7.30;99.90;;;;;;5011231;28;20552;-83
2022/04/29 02:09:13;;;;;;;17.53;7.27;;;7.20;99.90;;;;;;5012644;28;20179;-85
2022/04/29 02:11:38;;;;;;;16.20;8.10;;;7.20;99.90;;;;;;5010859;28;20238;-85
2022/04/29 02:14:04;;;;;;;18.83;7.77;;;7.00;99.90;;;;;;5010699;28;20213;-83
2022/04/29 02:16:30;;;;;;;21.77;8.23;;;7.00;99.90;;;;;;5010881;28;20205;-84
2022/04/29 02:18:56;;;;;;;22.70;8.00;;;7.00;99.90;;;;;;5011022;28;20267;-83
2022/04/29 02:21:22;;;;;;;28.73;8.10;;;7.00;99.90;;;;;;5011457;28;20238;-84
2022/04/29 02:23:48;;;;;;;19.40;7.50;;;7.10;99.90;;;;;;5011472;28;20190;-83
2022/04/29 02:26:13;;;;;;;22.23;8.60;;;7.10;99.90;;;;;;5010631;28;20588;-84
2022/04/29 02:28:39;;;;;;;26.00;8.20;;;7.00;99.90;;;;;;5011155;28;20661;-84
2022/04/29 02:31:05;;;;;;;20.03;8.27;;;7.00;99.90;;;;;;5012755;28;20181;-83
2022/04/29 02:33:31;;;;;;;21.23;8.07;;;7.00;99.90;;;;;;5014372;28;20170;-84
2022/04/29 02:35:57;;;;;;;25.77;8.53;;;7.00;99.90;;;;;;5014526;28;20184;-84
2022/04/29 02:38:22;;;;;;;19.43;8.00;;;6.90;99.90;;;;;;5014664;28;20186;-83
2022/04/29 02:40:51;;;;;;;20.97;8.27;;;6.90;99.90;;;;;;5014305;28;20273;-83
2022/04/29 02:43:19;;;;;;;17.83;7.83;;;6.90;99.90;;;;;;5013881;28;20221;-83
2022/04/29 02:45:46;;;;;;;20.30;8.20;;;6.80;99.90;;;;;;5014804;28;20214;-84
2022/04/29 02:48:15;;;;;;;23.20;8.60;;;6.90;99.90;;;;;;5014061;28;20180;-83
2022/04/29 02:50:40;;;;;;;17.30;7.87;;;6.80;99.90;;;;;;5013872;28;20257;-83
2022/04/29 02:53:06;;;;;;;23.80;8.17;;;6.80;99.90;;;;;;5013522;28;20587;-84
2022/04/29 02:55:32;;;;;;;21.87;7.90;;;6.80;99.90;;;;;;5014323;28;20633;-84
2022/04/29 02:57:57;;;;;;;21.10;8.83;;;6.70;99.90;;;;;;5013742;28;20240;-83
2022/04/29 03:00:23;;;;;;;26.60;8.27;;;6.70;99.90;;;;;;5014059;28;20201;-83
2022/04/29 03:02:48;;;;;;;29.30;8.87;;;6.70;99.90;;;;;;5013595;28;20182;-83
2022/04/29 03:05:14;;;;;;;23.13;8.83;;;6.70;99.90;;;;;;5013297;28;20208;-83
2022/04/29 03:07:40;;;;;;;26.83;8.47;;;6.80;99.90;;;;;;5013754;28;20199;-83
2022/04/29 03:10:06;;;;;;;23.37;8.40;;;6.70;99.90;;;;;;5015196;28;20180;-84
2022/04/29 03:12:31;;;;;;;18.60;7.73;;;6.70;99.90;;;;;;5016849;28;20275;-84
2022/04/29 03:15:15;;;;;;;24.50;8.00;;;6.70;99.90;;;;;;5017228;28;20220;-84
2022/04/29 03:20:26;;;;;;;18.27;8.03;;;6.60;99.90;;;;;;5019299;28;20640;-83
2022/04/29 03:22:52;;;;;;;23.97;9.30;;;6.60;99.90;;;;;;5017247;28;20179;-84
2022/04/29 03:25:18;;;;;;;22.20;8.77;;;6.60;99.90;;;;;;5017799;28;20300;-83
2022/04/29 03:27:43;;;;;;;21.83;7.53;;;6.60;99.90;;;;;;5018559;28;20227;-82
2022/04/29 03:30:10;;;;;;;19.33;8.30;;;6.50;99.90;;;;;;5018088;28;20235;-84
2022/04/29 03:32:35;;;;;;;19.57;8.03;;;6.50;99.90;;;;;;5017090;28;20240;-83
2022/04/29 03:35:01;;;;;;;19.80;8.30;;;6.40;99.90;;;;;;5018078;28;20634;-83
2022/04/29 03:37:27;;;;;;;24.57;8.03;;;6.50;99.90;;;;;;5018333;28;20240;-84
2022/04/29 03:39:53;;;;;;;21.73;8.53;;;6.40;99.90;;;;;;5017976;28;20177;-83
2022/04/29 03:42:19;;;;;;;25.20;8.47;;;6.40;99.90;;;;;;5018407;28;20186;-84
2022/04/29 03:44:45;;;;;;;19.17;8.53;;;6.40;99.90;;;;;;5018148;28;20300;-84
2022/04/29 03:47:10;;;;;;;27.70;9.37;;;6.40;99.90;;;;;;5018236;28;20247;-84
2022/04/29 03:49:36;;;;;;;21.60;8.57;;;6.50;99.90;;;;;;5017228;28;20175;-83
2022/04/29 03:52:02;;;;;;;28.03;9.13;;;6.40;99.90;;;;;;5017687;28;20188;-84
2022/04/29 03:54:28;;;;;;;24.83;8.17;;;6.40;99.90;;;;;;5016783;28;20212;-84
2022/04/29 03:56:54;;;;;;;26.03;9.17;;;6.30;99.90;;;;;;5016804;28;20196;-83
2022/04/29 03:59:19;;;;;;;21.73;8.20;;;6.40;99.90;;;;;;5016785;28;20468;-83
2022/04/29 04:01:45;;;;;;;22.17;8.30;;;6.30;99.90;;;;;;5016154;28;20179;-84
2022/04/29 04:04:11;;;;;;;24.50;8.57;;;6.40;99.90;;;;;;5016897;28;20182;-85
2022/04/29 04:06:49;;;;;;;27.30;9.23;;;6.30;99.90;;;;;;5016131;28;20214;-83
2022/04/29 04:09:16;;;;;;;26.43;8.60;;;6.40;99.90;;;;;;5016132;28;20212;-84
2022/04/29 04:11:41;;;;;;;24.03;8.87;;;6.20;99.90;;;;;;5016532;28;20288;-83
2022/04/29 04:14:08;;;;;;;21.27;8.87;;;6.30;99.90;;;;;;5016147;28;20216;-83
2022/04/29 04:16:35;;;;;;;27.87;9.17;;;6.30;99.90;;;;;;5016247;28;20217;-83
2022/04/29 04:19:01;;;;;;;31.00;8.77;;;6.30;99.90;;;;;;5016522;28;20178;-83
2022/04/29 04:21:27;;;;;;;26.83;9.27;;;6.30;99.90;;;;;;5015948;28;20181;-83
2022/04/29 04:23:55;;;;;;;31.07;9.60;;;6.30;99.90;;;;;;5017427;28;20201;-83
2022/04/29 04:26:22;;;;;;;20.83;9.13;;;6.30;99.90;;;;;;5015158;28;20234;-83
2022/04/29 04:28:48;;;;;;;39.50;9.57;;;6.30;99.90;;;;;;5016280;28;20590;-84
2022/04/29 04:31:14;;;;;;;24.87;9.67;;;6.30;99.90;;;;;;5015508;28;20199;-82
2022/04/29 04:33:40;;;;;;;29.73;8.87;;;6.40;99.90;;;;;;5015403;28;20628;-84
2022/04/29 04:36:06;;;;;;;23.70;8.83;;;6.30;99.90;;;;;;5014999;28;20563;-83
2022/04/29 04:38:32;;;;;;;34.27;11.17;;;6.40;99.90;;;;;;5015219;28;20214;-83
2022/04/29 04:40:58;;;;;;;36.03;9.17;;;6.40;99.90;;;;;;5015042;28;20186;-83
2022/04/29 04:43:24;;;;;;;24.37;8.97;;;6.40;99.90;;;;;;5014817;28;20180;-83
2022/04/29 04:45:51;;;;;;;23.67;8.80;;;6.50;99.90;;;;;;5015415;28;20237;-84
2022/04/29 04:48:17;;;;;;;27.70;9.27;;;6.40;99.90;;;;;;5015613;28;20189;-84
2022/04/29 04:50:42;;;;;;;29.80;9.97;;;6.40;99.90;;;;;;5015505;28;20179;-83
2022/04/29 04:53:08;;;;;;;25.40;9.70;;;6.40;99.90;;;;;;5015470;28;20646;-83
2022/04/29 04:55:35;;;;;;;22.03;8.83;;;6.50;99.90;;;;;;5015796;28;20179;-83
2022/04/29 04:58:01;;;;;;;33.23;9.30;;;6.50;99.90;;;;;;5015468;28;20202;-83
2022/04/29 05:00:27;;;;;;;29.30;9.30;;;6.50;99.90;;;;;;5016889;28;20192;-84
2022/04/29 05:02:52;;;;;;;29.63;9.33;;;6.60;99.90;;;;;;5015460;28;20219;-84
2022/04/29 05:05:18;;;;;;;31.57;8.70;;;6.60;99.90;;;;;;5015330;28;20205;-83
2022/04/29 05:07:44;;;;;;;26.77;8.60;;;6.50;99.90;;;;;;5015788;28;20196;-83
2022/04/29 05:10:11;;;;;;;22.47;10.10;;;6.50;99.90;;;;;;5016040;28;20174;-85
2022/04/29 05:12:39;;;;;;;25.83;9.03;;;6.60;99.90;;;;;;5014836;28;20647;-83
2022/04/29 05:15:05;;;;;;;28.67;10.30;;;6.70;99.90;;;;;;5015182;28;20170;-84
2022/04/29 05:17:30;;;;;;;32.93;9.37;;;6.70;99.90;;;;;;5015157;28;20210;-83
2022/04/29 05:19:56;;;;;;;25.30;9.17;;;6.70;99.90;;;;;;5015102;28;20177;-84
2022/04/29 05:22:22;;;;;;;31.03;9.47;;;6.80;99.90;;;;;;5015529;28;20273;-85
2022/04/29 05:24:48;;;;;;;25.73;9.53;;;6.80;99.90;;;;;;5015839;28;20209;-83
2022/04/29 05:27:14;;;;;;;25.93;9.03;;;6.90;99.90;;;;;;5015635;28;20194;-84
2022/04/29 05:29:40;;;;;;;27.00;9.57;;;6.90;99.90;;;;;;5015608;28;20178;-83
2022/04/29 05:32:07;;;;;;;23.00;9.77;;;6.90;99.90;;;;;;5014159;28;20174;-84
2022/04/29 05:34:33;;;;;;;23.77;8.60;;;6.90;99.90;;;;;;5015709;28;20542;-84
2022/04/29 05:37:00;;;;;;;24.20;9.23;;;6.90;99.90;;;;;;5015188;28;20198;-83
2022/04/29 05:42:22;;;;;;;19.53;8.87;;;7.10;99.90;;;;;;5017116;28;20218;-83
2022/04/29 05:44:48;;;;;;;23.03;8.80;;;7.00;99.90;;;;;;5013835;28;20231;-83
2022/04/29 05:47:14;;;;;;;24.00;8.03;;;7.30;99.90;;;;;;5013500;28;20201;-83
2022/04/29 05:49:40;;;;;;;23.07;8.10;;;7.30;99.90;;;;;;5014114;28;20188;-84
2022/04/29 05:52:07;;;;;;;18.43;8.00;;;7.40;99.90;;;;;;5012656;28;20231;-85
2022/04/29 05:54:33;;;;;;;21.53;8.90;;;7.60;99.90;;;;;;5012812;28;20268;-84
2022/04/29 05:57:01;;;;;;;31.27;8.50;;;7.60;99.90;;;;;;5013214;28;20205;-84
2022/04/29 05:59:27;;;;;;;24.40;9.13;;;7.80;99.90;;;;;;5012948;28;20587;-85
2022/04/29 06:01:53;;;;;;;20.17;8.60;;;8.10;99.90;;;;;;5013043;28;20178;-85
2022/04/29 06:04:18;;;;;;;21.17;7.97;;;8.50;99.90;;;;;;5013792;28;20288;-84
2022/04/29 06:06:44;;;;;;;21.33;8.53;;;8.80;99.90;;;;;;5014314;28;20236;-84
2022/04/29 06:09:10;;;;;;;20.03;7.43;;;9.00;99.90;;;;;;5013337;28;20172;-84
2022/04/29 06:11:35;;;;;;;18.87;7.53;;;9.50;99.90;;;;;;5013433;28;20201;-84
2022/04/29 06:14:01;;;;;;;20.23;7.23;;;9.50;99.90;;;;;;5016144;28;20665;-83
2022/04/29 06:16:27;;;;;;;19.03;7.63;;;10.00;99.90;;;;;;5013041;28;20209;-81
2022/04/29 06:18:52;;;;;;;16.47;6.83;;;10.00;99.90;;;;;;5013568;28;20211;-84
2022/04/29 06:21:19;;;;;;;22.70;7.10;;;10.30;99.90;;;;;;5013087;28;20175;-84
2022/04/29 06:23:45;;;;;;;21.03;7.90;;;10.40;99.90;;;;;;5013698;28;20186;-83
2022/04/29 06:26:11;;;;;;;19.53;7.07;;;10.60;99.90;;;;;;5012620;28;20210;-85
2022/04/29 06:28:37;;;;;;;15.97;6.53;;;10.90;99.90;;;;;;5012506;28;20175;-84
2022/04/29 06:31:03;;;;;;;16.07;7.03;;;11.00;99.90;;;;;;5011650;28;20258;-85
2022/04/29 06:33:33;;;;;;;12.67;6.83;;;11.00;99.90;;;;;;5012140;28;20669;-84
2022/04/29 06:35:59;;;;;;;20.80;6.80;;;10.70;99.90;;;;;;5012414;28;20547;-84
2022/04/29 06:38:25;;;;;;;17.00;6.73;;;10.90;99.90;;;;;;5011970;28;20171;-85
2022/04/29 06:40:52;;;;;;;20.43;7.20;;;11.00;99.90;;;;;;5012116;28;20718;-85
2022/04/29 06:43:19;;;;;;;15.77;6.07;;;11.20;99.90;;;;;;5013103;28;20178;-86
2022/04/29 06:45:44;;;;;;;16.93;6.37;;;10.40;99.90;;;;;;5018345;28;20228;-85
2022/04/29 06:48:10;;;;;;;15.33;6.57;;;10.20;99.90;;;;;;5020779;28;20174;-85
2022/04/29 06:50:36;;;;;;;23.80;6.80;;;9.90;99.90;;;;;;5019383;28;20169;-86
2022/04/29 06:53:02;;;;;;;17.13;6.13;;;10.00;99.90;;;;;;5016162;28;20251;-85
2022/04/29 06:55:27;;;;;;;18.70;6.83;;;10.00;99.90;;;;;;5019294;28;20182;-87
2022/04/29 06:57:53;;;;;;;12.17;7.17;;;10.30;99.90;;;;;;5017750;28;20563;-86
2022/04/29 07:00:20;;;;;;;15.80;6.90;;;10.40;99.90;;;;;;5018383;28;20551;-86
2022/04/29 07:02:46;;;;;;;19.40;7.37;;;10.40;99.90;;;;;;5019176;28;20671;-86
2022/04/29 07:05:11;;;;;;;16.17;6.83;;;10.40;99.90;;;;;;5020421;28;20189;-85
2022/04/29 07:07:37;;;;;;;18.43;6.70;;;10.30;99.90;;;;;;5016767;28;20205;-85
2022/04/29 07:10:06;;;;;;;18.03;6.93;;;10.40;99.90;;;;;;5016672;28;20574;-85
2022/04/29 07:12:39;;;;;;;15.47;6.70;;;10.40;99.90;;;;;;5020354;28;20164;-85
2022/04/29 07:15:06;;;;;;;16.70;6.43;;;10.30;99.90;;;;;;5016673;28;20173;-85
2022/04/29 07:17:31;;;;;;;20.37;6.77;;;10.40;99.90;;;;;;5018397;28;20248;-83
2022/04/29 07:19:59;;;;;;;26.97;7.07;;;10.70;99.90;;;;;;5019706;28;20187;-85
2022/04/29 07:22:25;;;;;;;22.00;6.77;;;10.40;99.90;;;;;;5020797;28;20647;-85
2022/04/29 07:24:51;;;;;;;18.97;6.80;;;10.40;99.90;;;;;;5021923;28;20194;-84
2022/04/29 07:27:17;;;;;;;15.90;6.90;;;10.20;99.90;;;;;;5020407;28;20241;-85
2022/04/29 07:29:43;;;;;;;15.40;6.13;;;10.40;99.90;;;;;;5021078;28;20163;-84
2022/04/29 07:32:09;;;;;;;19.47;6.10;;;11.00;99.90;;;;;;5020592;28;20686;-83
2022/04/29 07:42:47;;;;;;;17.40;6.23;;;11.90;99.90;;;;;;5022117;28;20163;-83
2022/04/29 07:45:13;;;;;;;14.87;6.53;;;11.30;99.90;;;;;;5018994;28;20189;-85
2022/04/29 07:47:39;;;;;;;21.10;7.23;;;11.70;99.90;;;;;;5016997;28;20187;-86
2022/04/29 07:50:06;;;;;;;19.37;6.50;;;12.10;99.90;;;;;;5017588;28;20202;-84
2022/04/29 07:52:33;;;;;;;18.67;6.33;;;12.70;99.90;;;;;;5018941;28;20524;-86
2022/04/29 07:54:59;;;;;;;17.53;6.10;;;12.30;99.90;;;;;;5019017;28;20191;-86
2022/04/29 07:57:25;;;;;;;18.17;6.17;;;11.80;99.90;;;;;;5019512;28;20258;-87
2022/04/29 07:59:51;;;;;;;15.60;6.67;;;11.80;99.90;;;;;;5021119;28;20670;-86
2022/04/29 08:02:16;;;;;;;17.47;6.63;;;11.60;99.90;;;;;;5021798;28;20181;-87
2022/04/29 08:04:42;;;;;;;16.37;6.10;;;11.70;99.90;;;;;;5019499;28;20525;-85
2022/04/29 08:07:11;;;;;;;17.33;6.00;;;11.60;99.90;;;;;;5016301;28;20283;-85
2022/04/29 08:09:37;;;;;;;14.50;6.30;;;11.50;99.90;;;;;;5018977;28;20262;-85
2022/04/29 08:12:04;;;;;;;23.70;6.50;;;11.70;99.90;;;;;;5021318;28;20179;-86
2022/04/29 08:14:31;;;;;;;19.03;6.93;;;11.80;99.90;;;;;;5022834;28;20168;-85
2022/04/29 08:16:57;;;;;;;21.10;6.20;;;11.90;99.90;;;;;;5021465;28;20563;-84
2022/04/29 08:19:23;;;;;;;16.30;5.90;;;11.90;99.90;;;;;;5021991;28;20218;-84
2022/04/29 08:21:49;;;;;;;15.90;6.07;;;11.50;99.90;;;;;;5021537;28;20171;-86
2022/04/29 08:24:15;;;;;;;16.73;6.80;;;11.60;99.90;;;;;;5022506;28;20185;-82
2022/04/29 08:26:41;;;;;;;12.70;5.97;;;11.90;99.90;;;;;;5023190;28;20504;-86
2022/04/29 08:29:06;;;;;;;15.00;6.20;;;11.90;99.90;;;;;;5021382;28;20187;-85
2022/04/29 08:31:32;;;;;;;15.57;6.17;;;11.80;99.90;;;;;;5022016;28;20206;-84
2022/04/29 08:33:58;;;;;;;12.20;6.43;;;11.70;99.90;;;;;;5022840;28;20180;-84
2022/04/29 08:36:23;;;;;;;18.57;6.50;;;11.80;99.90;;;;;;5021000;28;20201;-85
2022/04/29 08:38:51;;;;;;;14.00;6.50;;;11.70;99.90;;;;;;5024357;28;20182;-85
2022/04/29 08:41:19;;;;;;;17.57;6.57;;;11.80;99.90;;;;;;5022512;28;20180;-87
2022/04/29 08:43:47;;;;;;;16.37;6.37;;;11.50;99.90;;;;;;5020252;28;20263;-84
2022/04/29 08:46:14;;;;;;;15.40;7.40;;;11.30;99.90;;;;;;5021717;28;20318;-85
2022/04/29 08:48:43;;;;;;;19.23;6.83;;;11.60;99.90;;;;;;5022438;28;20633;-83
2022/04/29 08:51:08;;;;;;;16.47;6.33;;;11.70;99.90;;;;;;5021781;28;20230;-85
2022/04/29 08:53:35;;;;;;;17.23;7.40;;;11.20;99.90;;;;;;5022216;28;20579;-86
2022/04/29 08:58:47;;;;;;;16.83;7.27;;;11.50;99.90;;;;;;5024256;28;20268;-85
2022/04/29 09:01:15;;;;;;;18.90;7.30;;;11.40;99.90;;;;;;5024739;28;20193;-84
2022/04/29 09:03:43;;;;;;;22.53;7.60;;;11.40;99.90;;;;;;5025602;28;20175;-85
2022/04/29 09:06:09;;;;;;;16.00;7.20;;;11.50;99.90;;;;;;5025670;28;20210;-85
2022/04/29 09:08:43;;;;;;;25.27;8.17;;;11.30;99.90;;;;;;5025356;28;20175;-86
2022/04/29 09:11:10;;;;;;;24.57;8.67;;;11.20;99.90;;;;;;5023094;28;20195;-84
2022/04/29 09:13:38;;;;;;;17.03;7.50;;;11.40;99.90;;;;;;5028272;28;20707;-84
2022/04/29 09:16:12;;;;;;;16.67;8.03;;;11.20;99.90;;;;;;5020166;28;20199;-83
2022/04/29 09:18:50;;;;;;;22.90;8.07;;;11.50;99.90;;;;;;5010683;28;20203;-84
2022/04/29 09:21:27;;;;;;;17.23;8.03;;;11.80;99.90;;;;;;5018107;28;20174;-85
2022/04/29 09:23:59;;;;;;;19.67;7.90;;;11.90;99.90;;;;;;5025661;28;20177;-84
2022/04/29 09:26:36;;;;;;;22.67;8.97;;;11.80;99.90;;;;;;5025917;28;20235;-83
2022/04/29 09:29:19;;;;;;;20.70;8.60;;;11.60;99.90;;;;;;5025251;28;20181;-84
2022/04/29 09:31:57;;;;;;;17.50;8.47;;;11.70;99.90;;;;;;5021345;28;20197;-84
2022/04/29 09:34:23;;;;;;;19.60;8.50;;;11.90;99.90;;;;;;5017552;28;20177;-83
2022/04/29 09:36:50;;;;;;;20.90;8.70;;;12.10;99.90;;;;;;5017359;28;20191;-84
2022/04/29 09:39:32;;;;;;;18.43;8.77;;;11.90;99.90;;;;;;5017126;28;20248;-84
2022/04/29 09:42:00;;;;;;;25.50;9.23;;;12.10;99.90;;;;;;5016739;28;20213;-82
2022/04/29 09:44:27;;;;;;;21.03;9.07;;;12.10;99.90;;;;;;5017057;28;20183;-82
2022/04/29 09:46:53;;;;;;;21.83;9.23;;;12.20;99.90;;;;;;5016279;28;20250;-83
2022/04/29 09:49:19;;;;;;;18.20;9.10;;;12.10;99.90;;;;;;5017064;28;20590;-85
2022/04/29 09:51:51;;;;;;;25.47;9.77;;;12.30;99.90;;;;;;5017365;28;20268;-83
2022/04/29 09:54:22;;;;;;;20.30;9.20;;;12.10;99.90;;;;;;5017124;28;20259;-82
2022/04/29 09:57:07;;;;;;;22.70;9.23;;;11.90;99.90;;;;;;5016219;28;20194;-83
2022/04/29 09:59:52;;;;;;;19.83;9.20;;;12.00;99.90;;;;;;5016526;28;20197;-82
2022/04/29 10:02:21;;;;;;;19.10;9.80;;;12.40;99.90;;;;;;5017772;28;20266;-82
2022/04/29 10:04:48;;;;;;;19.47;9.00;;;13.10;99.90;;;;;;5016670;28;20244;-82
2022/04/29 10:07:16;;;;;;;22.87;9.00;;;13.90;99.90;;;;;;5015655;28;20379;-83
2022/04/29 10:09:47;;;;;;;20.67;8.93;;;14.00;99.90;;;;;;5016944;28;20197;-84
2022/04/29 10:12:15;;;;;;;20.77;8.73;;;13.00;99.90;;;;;;5016322;28;20176;-83
2022/04/29 10:14:42;;;;;;;24.07;8.77;;;13.20;99.90;;;;;;5016983;28;20166;-83
2022/04/29 10:22:51;;;;;;;22.60;9.00;;;12.70;99.90;;;;;;5024285;28;20228;-84
2022/04/29 10:25:20;;;;;;;19.37;8.40;;;12.80;99.90;;;;;;5023805;28;20262;-83
2022/04/29 10:27:46;;;;;;;18.67;8.10;;;13.40;99.90;;;;;;5021873;28;20681;-83
2022/04/29 10:30:12;;;;;;;20.17;8.40;;;13.30;99.90;;;;;;5020507;28;20174;-82
2022/04/29 10:33:02;;;;;;;18.70;8.20;;;13.40;99.90;;;;;;5018200;28;20185;-82
2022/04/29 10:35:43;;;;;;;15.87;7.17;;;13.20;99.90;;;;;;5018850;28;20174;-83
2022/04/29 10:38:12;;;;;;;16.50;6.87;;;13.40;99.90;;;;;;5018643;28;20547;-83
2022/04/29 10:40:38;;;;;;;19.83;7.50;;;13.40;99.90;;;;;;5019004;28;20190;-82
2022/04/29 10:43:06;;;;;;;14.87;6.57;;;13.90;99.90;;;;;;5018105;28;20233;-83
2022/04/29 10:45:31;;;;;;;12.83;7.20;;;14.20;99.90;;;;;;5017598;28;20209;-83
2022/04/29 10:47:57;;;;;;;10.93;6.73;;;14.60;99.90;;;;;;5016304;28;20770;-84
2022/04/29 10:50:29;;;;;;;12.73;7.20;;;14.60;99.90;;;;;;5016389;28;20173;-83
2022/04/29 10:53:05;;;;;;;15.97;6.27;;;14.30;99.80;;;;;;5016168;28;20198;-83
2022/04/29 10:55:31;;;;;;;15.77;6.70;;;14.20;99.90;;;;;;5016681;28;20257;-84
2022/04/29 10:58:17;;;;;;;15.97;7.23;;;14.10;99.90;;;;;;5015829;28;20714;-84
2022/04/29 11:00:54;;;;;;;16.50;6.97;;;14.20;99.90;;;;;;5016176;28;20702;-84
2022/04/29 11:03:47;;;;;;;14.73;6.27;;;14.10;99.90;;;;;;5016527;28;20172;-85
2022/04/29 11:06:14;;;;;;;15.57;6.90;;;13.70;99.90;;;;;;5014404;28;20218;-83
2022/04/29 11:08:44;;;;;;;13.93;6.53;;;13.90;99.90;;;;;;5016502;28;20173;-83
2022/04/29 11:11:10;;;;;;;16.57;6.57;;;14.50;99.10;;;;;;5016032;28;20170;-84
2022/04/29 11:13:42;;;;;;;16.33;6.60;;;14.60;98.20;;;;;;5016026;28;20170;-84
2022/04/29 11:16:16;;;;;;;11.53;6.10;;;14.50;97.90;;;;;;5015426;28;20201;-84
2022/04/29 11:18:44;;;;;;;12.73;6.63;;;14.80;98.80;;;;;;5015761;28;20206;-85
2022/04/29 11:26:46;;;;;;;12.83;6.27;;;14.20;96.40;;;;;;5016348;28;20251;-83
2022/04/29 11:29:12;;;;;;;11.57;6.30;;;13.90;97.40;;;;;;5015706;28;20539;-85
2022/04/29 11:31:39;;;;;;;15.20;6.93;;;13.90;98.00;;;;;;5013783;28;20774;-83
2022/04/29 11:34:13;;;;;;;14.97;6.87;;;14.00;99.20;;;;;;5015643;28;20174;-84
2022/04/29 11:36:40;;;;;;;12.77;6.97;;;14.30;97.10;;;;;;5015971;28;20253;-84
2022/04/29 11:39:16;;;;;;;16.77;6.70;;;13.90;98.40;;;;;;5017180;28;20179;-84
2022/04/29 11:41:59;;;;;;;13.63;6.23;;;14.30;98.00;;;;;;5017217;28;20202;-84
2022/04/29 11:44:34;;;;;;;11.40;5.73;;;14.20;98.00;;;;;;5015615;28;20659;-84
2022/04/29 11:47:00;;;;;;;13.70;6.33;;;13.90;96.40;;;;;;5016303;28;20563;-85
2022/04/29 11:49:34;;;;;;;13.30;5.90;;;13.70;97.40;;;;;;5015794;28;20178;-84
2022/04/29 11:52:18;;;;;;;15.50;5.87;;;13.90;96.60;;;;;;5016288;28;20177;-85
2022/04/29 11:54:58;;;;;;;12.93;6.03;;;14.10;97.50;;;;;;5015625;28;20166;-84
2022/04/29 11:57:27;;;;;;;17.17;6.90;;;14.20;98.20;;;;;;5014922;28;20190;-85
2022/04/29 11:59:53;;;;;;;20.17;6.10;;;14.30;97.60;;;;;;5015615;28;20182;-84
2022/04/29 12:02:23;;;;;;;12.30;6.33;;;14.40;97.40;;;;;;5015965;28;20219;-84
2022/04/29 12:05:07;;;;;;;15.33;6.80;;;14.00;97.00;;;;;;5015125;28;20603;-84
2022/04/29 12:07:44;;;;;;;14.40;6.80;;;13.80;98.00;;;;;;5016013;28;20204;-84
2022/04/29 12:10:27;;;;;;;13.93;5.97;;;14.30;98.80;;;;;;5015059;28;20170;-85
2022/04/29 12:12:58;;;;;;;13.57;6.33;;;14.50;97.90;;;;;;5015054;28;20167;-85
2022/04/29 12:15:43;;;;;;;26.63;6.47;;;14.90;99.30;;;;;;5016071;28;20175;-83
2022/04/29 12:18:14;;;;;;;16.20;6.13;;;14.90;97.50;;;;;;5017144;28;20217;-84
2022/04/29 12:20:40;;;;;;;11.80;6.30;;;14.70;95.60;;;;;;5013834;28;20179;-85
2022/04/29 12:23:25;;;;;;;14.90;6.67;;;14.60;97.70;;;;;;5013812;28;20175;-84
2022/04/29 12:25:54;;;;;;;13.23;6.23;;;15.10;96.10;;;;;;5013471;28;20191;-85
2022/04/29 12:28:21;;;;;;;9.97;5.93;;;14.80;94.80;;;;;;5014351;28;20258;-84
2022/04/29 12:36:55;;;;;;;13.90;6.57;;;15.30;95.80;;;;;;5017120;28;20216;-84
2022/04/29 12:39:27;;;;;;;17.53;5.93;;;15.30;94.20;;;;;;5016299;28;20178;-85
2022/04/29 12:41:58;;;;;;;14.50;6.90;;;15.10;95.40;;;;;;5020238;28;20546;-86
2022/04/29 12:47:22;;;;;;;15.87;5.87;;;15.00;94.40;;;;;;5020537;28;20730;-86
2022/04/29 12:49:48;;;;;;;13.50;6.30;;;15.40;94.90;;;;;;5019177;28;20189;-84
2022/04/29 12:52:15;;;;;;;12.53;7.00;;;15.40;94.50;;;;;;5016920;28;20175;-85
2022/04/29 12:54:40;;;;;;;12.10;6.17;;;15.20;93.60;;;;;;5016099;28;20174;-85
2022/04/29 12:57:06;;;;;;;15.33;7.00;;;15.10;93.90;;;;;;5016987;28;20748;-85
2022/04/29 12:59:36;;;;;;;14.13;6.93;;;14.90;95.60;;;;;;5016138;28;20721;-84
2022/04/29 13:02:05;;;;;;;11.67;6.63;;;15.40;95.20;;;;;;5015683;28;20177;-85
2022/04/29 13:04:31;;;;;;;16.03;7.57;;;15.80;95.30;;;;;;5013905;28;20296;-85
2022/04/29 13:06:57;;;;;;;13.63;8.10;;;14.70;94.70;;;;;;5014976;28;20218;-85
2022/04/29 13:09:25;;;;;;;16.33;7.47;;;15.30;94.80;;;;;;5015382;28;20181;-85
2022/04/29 13:11:51;;;;;;;11.53;6.97;;;15.50;94.40;;;;;;5014546;28;20654;-85
2022/04/29 13:14:17;;;;;;;20.50;8.53;;;15.60;94.90;;;;;;5014940;28;20762;-84
2022/04/29 13:16:44;;;;;;;14.37;8.03;;;15.60;94.00;;;;;;5015374;28;20207;-82
2022/04/29 13:19:13;;;;;;;15.30;7.93;;;15.40;94.30;;;;;;5014816;28;20651;-84
2022/04/29 13:21:39;;;;;;;19.23;8.27;;;15.60;93.50;;;;;;5016109;28;20202;-83
2022/04/29 13:24:05;;;;;;;18.40;8.83;;;15.60;93.10;;;;;;5015135;28;20205;-85